Time;durP1;ratioP1;P1;durP2;ratioP2;P2;SDS_P1;SDS_P2;PMS_P1;PMS_P2;Temp;Humidity;BMP_temperature;BMP_pressure;BME280_temperature;BME280_humidity;BME280_pressure;Samples;Min_cycle;Max_cycle;Signal;HPM_P1;HPM_P2
2022/10/02 00:00:05;;;;;;;0.10;0.10;;;;;;;;;;5019754;28;20511;-74
2022/10/02 00:02:46;;;;;;;0.20;0.20;;;;;;;;;;5037353;28;20464;-73
2022/10/02 00:05:17;;;;;;;0.20;0.20;;;;;;;;;;5054244;28;20279;-72
2022/10/02 00:07:45;;;;;;;0.10;0.10;;;;;;;;;;5053761;28;20087;-73
2022/10/02 00:10:16;;;;;;;0.20;0.20;;;;;;;;;;5053845;28;20119;-74
2022/10/02 00:12:43;;;;;;;0.20;0.20;;;;;;;;;;5036330;28;20029;-74
2022/10/02 00:15:20;;;;;;;0.20;0.20;;;;;;;;;;5019361;28;20052;-74
2022/10/02 00:17:48;;;;;;;0.52;0.52;;;;;;;;;;5053746;28;20484;-74
2022/10/02 00:20:15;;;;;;;0.20;0.20;;;;;;;;;;5035875;28;20032;-74
2022/10/02 00:22:46;;;;;;;0.13;0.13;;;;;;;;;;5035737;28;20043;-73
2022/10/02 00:25:19;;;;;;;0.20;0.20;;;;;;;;;;5036049;28;20025;-73
2022/10/02 00:27:51;;;;;;;0.20;0.20;;;;;;;;;;5053350;28;20068;-74
2022/10/02 00:30:17;;;;;;;0.20;0.20;;;;;;;;;;5053660;28;20029;-73
2022/10/02 00:32:54;;;;;;;0.17;0.17;;;;;;;;;;5053808;28;20036;-74
2022/10/02 00:35:26;;;;;;;0.10;0.10;;;;;;;;;;5035652;28;20029;-73
2022/10/02 00:37:57;;;;;;;0.20;0.20;;;;;;;;;;5053360;28;20110;-73
2022/10/02 00:40:36;;;;;;;0.10;0.10;;;;;;;;;;5019285;28;20033;-73
2022/10/02 00:43:04;;;;;;;0.30;0.30;;;;;;;;;;5053410;28;20029;-72
2022/10/02 00:45:30;;;;;;;0.15;0.15;;;;;;;;;;5053280;28;20023;-74
2022/10/02 00:48:02;;;;;;;0.13;0.13;;;;;;;;;;5034778;28;20439;-73
2022/10/02 00:50:54;;;;;;;0.20;0.20;;;;;;;;;;5035741;28;20068;-73
2022/10/02 00:53:20;;;;;;;0.20;0.20;;;;;;;;;;5050182;28;20033;-74
2022/10/02 00:56:04;;;;;;;0.17;0.17;;;;;;;;;;5035438;28;20024;-73
2022/10/02 00:58:38;;;;;;;0.13;0.13;;;;;;;;;;5053310;28;20179;-73
2022/10/02 01:01:07;;;;;;;0.20;0.20;;;;;;;;;;5053155;28;20067;-73
2022/10/02 01:03:55;;;;;;;0.20;0.20;;;;;;;;;;5035436;28;20460;-73
2022/10/02 01:06:23;;;;;;;0.30;0.30;;;;;;;;;;5053114;28;20056;-74
2022/10/02 01:08:48;;;;;;;0.20;0.20;;;;;;;;;;5052999;28;20029;-74
2022/10/02 01:11:14;;;;;;;0.20;0.20;;;;;;;;;;5072745;28;20040;-73
2022/10/02 01:13:39;;;;;;;0.10;0.10;;;;;;;;;;5055312;28;20095;-74
2022/10/02 01:16:09;;;;;;;0.10;0.10;;;;;;;;;;5072883;28;20553;-73
2022/10/02 01:18:34;;;;;;;0.10;0.10;;;;;;;;;;5072899;28;20442;-74
2022/10/02 01:21:03;;;;;;;0.17;0.17;;;;;;;;;;5072921;28;20028;-75
2022/10/02 01:23:29;;;;;;;0.20;0.20;;;;;;;;;;5055158;28;20037;-74
2022/10/02 01:25:54;;;;;;;0.35;0.35;;;;;;;;;;5072952;28;20039;-73
2022/10/02 01:28:20;;;;;;;0.20;0.20;;;;;;;;;;5038253;28;20017;-73
2022/10/02 01:30:47;;;;;;;0.20;0.20;;;;;;;;;;5073029;28;20025;-73
2022/10/02 01:33:13;;;;;;;0.10;0.10;;;;;;;;;;5072984;28;20024;-73
2022/10/02 01:35:39;;;;;;;0.20;0.20;;;;;;;;;;5078793;28;20033;-74
2022/10/02 01:38:09;;;;;;;0.20;0.20;;;;;;;;;;5078744;28;20345;-73
2022/10/02 01:40:36;;;;;;;0.15;0.15;;;;;;;;;;5076452;28;20037;-74
2022/10/02 01:43:13;;;;;;;0.10;0.10;;;;;;;;;;5072766;28;20495;-74
2022/10/02 01:45:54;;;;;;;0.17;0.17;;;;;;;;;;5054986;28;20029;-73
2022/10/02 01:48:37;;;;;;;0.13;0.13;;;;;;;;;;5072531;28;20379;-73
2022/10/02 01:51:02;;;;;;;0.20;0.20;;;;;;;;;;5074505;28;20029;-74
2022/10/02 01:53:32;;;;;;;0.20;0.20;;;;;;;;;;5076760;28;20017;-73
2022/10/02 01:56:04;;;;;;;0.20;0.20;;;;;;;;;;5076948;28;20027;-73
2022/10/02 01:58:38;;;;;;;0.20;0.20;;;;;;;;;;5074584;28;20032;-74
2022/10/02 02:01:16;;;;;;;0.10;0.10;;;;;;;;;;5065126;28;20052;-74
2022/10/02 02:04:04;;;;;;;0.20;0.20;;;;;;;;;;5066040;28;20024;-74
2022/10/02 02:06:40;;;;;;;0.32;0.32;;;;;;;;;;5046019;28;20361;-75
2022/10/02 02:09:15;;;;;;;0.20;0.20;;;;;;;;;;5063861;28;20021;-73
2022/10/02 02:11:47;;;;;;;0.13;0.13;;;;;;;;;;5040622;28;20029;-73
2022/10/02 02:14:18;;;;;;;0.10;0.10;;;;;;;;;;5057966;28;20480;-73
2022/10/02 02:16:48;;;;;;;0.10;0.10;;;;;;;;;;5046232;28;20045;-74
2022/10/02 02:19:24;;;;;;;0.10;0.10;;;;;;;;;;5045364;28;20037;-74
2022/10/02 02:21:57;;;;;;;0.20;0.20;;;;;;;;;;5046897;28;20025;-73
2022/10/02 02:24:25;;;;;;;0.10;0.10;;;;;;;;;;5056334;28;20373;-73
2022/10/02 02:26:52;;;;;;;0.73;0.73;;;;;;;;;;5056041;28;20049;-73
2022/10/02 02:29:20;;;;;;;0.10;0.10;;;;;;;;;;5054722;28;20118;-72
2022/10/02 02:31:48;;;;;;;0.20;0.20;;;;;;;;;;5054719;28;20052;-72
2022/10/02 02:34:17;;;;;;;0.10;0.10;;;;;;;;;;5054486;28;20064;-73
2022/10/02 02:36:44;;;;;;;0.10;0.10;;;;;;;;;;5055531;28;20052;-73
2022/10/02 02:39:13;;;;;;;0.10;0.10;;;;;;;;;;5037911;28;20036;-73
2022/10/02 02:41:47;;;;;;;0.13;0.13;;;;;;;;;;5054402;28;20025;-73
2022/10/02 02:44:12;;;;;;;0.10;0.10;;;;;;;;;;5055740;28;20056;-74
2022/10/02 02:47:02;;;;;;;0.68;0.68;;;;;;;;;;5055699;28;20044;-73
2022/10/02 02:49:25;;;;;;;0.10;0.10;;;;;;;;;;5050921;28;20033;-73
2022/10/02 02:51:51;;;;;;;0.10;0.10;;;;;;;;;;5035664;28;20018;-73
2022/10/02 02:54:27;;;;;;;0.10;0.10;;;;;;;;;;5034351;28;20029;-73
2022/10/02 02:56:54;;;;;;;0.45;0.45;;;;;;;;;;5017871;28;20029;-73
2022/10/02 02:59:22;;;;;;;0.10;0.10;;;;;;;;;;5017479;28;20068;-74
2022/10/02 03:01:47;;;;;;;0.10;0.10;;;;;;;;;;5016582;28;20026;-73
2022/10/02 03:04:13;;;;;;;0.10;0.10;;;;;;;;;;5031106;28;20040;-73
2022/10/02 03:06:44;;;;;;;0.10;0.10;;;;;;;;;;5031715;28;20539;-73
2022/10/02 03:09:12;;;;;;;0.10;0.10;;;;;;;;;;5030266;28;20116;-73
2022/10/02 03:11:43;;;;;;;0.10;0.10;;;;;;;;;;5031699;28;20047;-73
2022/10/02 03:14:37;;;;;;;0.10;0.10;;;;;;;;;;5030476;28;20041;-73
2022/10/02 03:17:32;;;;;;;0.10;0.10;;;;;;;;;;5031623;28;20041;-73
2022/10/02 03:20:10;;;;;;;0.10;0.10;;;;;;;;;;5017183;28;20396;-74
2022/10/02 03:22:47;;;;;;;0.10;0.10;;;;;;;;;;5031018;28;20037;-73
2022/10/02 03:25:51;;;;;;;0.75;0.65;;;;;;;;;;5031140;28;20107;-74
2022/10/02 03:28:29;;;;;;;0.10;0.10;;;;;;;;;;4969780;28;20506;-73
2022/10/02 03:30:56;;;;;;;0.10;0.10;;;;;;;;;;4970021;28;20133;-73
2022/10/02 03:33:22;;;;;;;0.10;0.10;;;;;;;;;;5004423;28;20209;-73
2022/10/02 03:35:49;;;;;;;0.30;0.30;;;;;;;;;;5031387;28;20476;-73
2022/10/02 03:38:15;;;;;;;0.10;0.10;;;;;;;;;;5029494;28;20087;-73
2022/10/02 03:40:40;;;;;;;0.15;0.15;;;;;;;;;;5030759;28;20057;-73
2022/10/02 03:43:06;;;;;;;0.25;0.25;;;;;;;;;;5030855;28;20056;-72
2022/10/02 03:45:31;;;;;;;0.10;0.10;;;;;;;;;;5030399;28;20049;-72
2022/10/02 03:47:57;;;;;;;0.10;0.10;;;;;;;;;;5029639;28;20034;-73
2022/10/02 03:50:22;;;;;;;0.10;0.10;;;;;;;;;;5030544;28;20100;-74
2022/10/02 03:52:49;;;;;;;0.10;0.10;;;;;;;;;;5012786;28;20033;-73
2022/10/02 03:55:36;;;;;;;0.10;0.10;;;;;;;;;;5030463;28;20038;-74
2022/10/02 03:58:07;;;;;;;0.10;0.10;;;;;;;;;;5030367;28;20044;-74
2022/10/02 04:00:35;;;;;;;0.20;0.20;;;;;;;;;;5030379;28;20053;-75
2022/10/02 04:03:04;;;;;;;0.10;0.10;;;;;;;;;;5030228;28;20083;-75
2022/10/02 04:05:42;;;;;;;0.10;0.10;;;;;;;;;;5030536;28;20061;-74
2022/10/02 04:08:09;;;;;;;0.10;0.10;;;;;;;;;;5012186;28;20432;-75
2022/10/02 04:10:50;;;;;;;0.73;0.30;;;;;;;;;;5029224;28;20035;-74
2022/10/02 04:13:20;;;;;;;0.35;0.30;;;;;;;;;;5033511;28;20464;-75
2022/10/02 04:15:45;;;;;;;;;;;;;;;;;;5048857;28;20389;-73
2022/10/02 04:18:16;;;;;;;0.10;0.10;;;;;;;;;;5049926;28;19967;-74
2022/10/02 04:20:44;;;;;;;0.10;0.10;;;;;;;;;;5048545;28;20055;-73
2022/10/02 04:23:25;;;;;;;0.10;0.10;;;;;;;;;;5048462;28;20047;-74
2022/10/02 04:25:52;;;;;;;0.10;0.10;;;;;;;;;;5049751;28;20108;-73
2022/10/02 04:28:19;;;;;;;0.10;0.10;;;;;;;;;;5049358;28;20028;-74
2022/10/02 04:30:45;;;;;;;0.10;0.10;;;;;;;;;;5049278;28;20487;-74
2022/10/02 04:33:13;;;;;;;0.10;0.10;;;;;;;;;;5049969;28;20032;-74
2022/10/02 04:35:41;;;;;;;0.10;0.10;;;;;;;;;;5031615;28;20059;-73
2022/10/02 04:38:19;;;;;;;0.65;0.65;;;;;;;;;;5048432;28;20507;-74
2022/10/02 04:41:04;;;;;;;0.65;0.65;;;;;;;;;;5047456;28;20033;-74
2022/10/02 04:43:42;;;;;;;0.20;0.20;;;;;;;;;;5048199;28;20534;-74
2022/10/02 04:46:26;;;;;;;0.10;0.10;;;;;;;;;;5049002;28;20387;-74
2022/10/02 04:49:10;;;;;;;0.10;0.10;;;;;;;;;;5049662;28;20033;-73
2022/10/02 04:51:39;;;;;;;0.17;0.17;;;;;;;;;;5047793;28;20494;-74
2022/10/02 04:54:23;;;;;;;0.10;0.10;;;;;;;;;;5048451;28;20358;-73
2022/10/02 04:56:57;;;;;;;0.10;0.10;;;;;;;;;;5048972;28;20082;-74
2022/10/02 04:59:39;;;;;;;0.90;0.25;;;;;;;;;;5047654;28;20044;-74
2022/10/02 05:02:04;;;;;;;0.10;0.10;;;;;;;;;;5048955;28;20589;-73
2022/10/02 05:04:47;;;;;;;0.10;0.10;;;;;;;;;;5048405;28;20043;-76
2022/10/02 05:07:19;;;;;;;0.10;0.10;;;;;;;;;;5049344;28;20021;-74
2022/10/02 05:10:03;;;;;;;0.10;0.10;;;;;;;;;;5049075;28;20033;-76
2022/10/02 05:12:37;;;;;;;0.10;0.10;;;;;;;;;;5048955;28;20025;-74
2022/10/02 05:15:20;;;;;;;0.10;0.10;;;;;;;;;;5053959;28;20263;-73
2022/10/02 05:18:04;;;;;;;0.10;0.10;;;;;;;;;;5068525;28;20407;-73
2022/10/02 05:20:46;;;;;;;0.10;0.10;;;;;;;;;;5069403;28;20150;-75
2022/10/02 05:23:30;;;;;;;2.17;2.08;;;;;;;;;;5068970;28;20028;-75
2022/10/02 05:26:09;;;;;;;0.10;0.10;;;;;;;;;;5053041;28;20048;-75
2022/10/02 05:28:35;;;;;;;0.10;0.10;;;;;;;;;;5073147;28;20035;-73
2022/10/02 05:31:21;;;;;;;0.10;0.10;;;;;;;;;;5072899;28;20028;-74
2022/10/02 05:33:50;;;;;;;0.10;0.10;;;;;;;;;;5059107;28;20037;-74
2022/10/02 05:36:30;;;;;;;0.10;0.10;;;;;;;;;;5072490;28;20059;-74
2022/10/02 05:39:01;;;;;;;0.10;0.10;;;;;;;;;;5072707;28;20110;-74
2022/10/02 05:41:31;;;;;;;0.20;0.20;;;;;;;;;;5072976;28;20024;-73
2022/10/02 05:44:01;;;;;;;0.10;0.10;;;;;;;;;;5054958;28;20021;-74
2022/10/02 05:46:30;;;;;;;0.10;0.10;;;;;;;;;;5073369;28;20028;-74
2022/10/02 05:49:04;;;;;;;0.10;0.10;;;;;;;;;;5054565;28;20059;-75
2022/10/02 05:51:42;;;;;;;0.15;0.15;;;;;;;;;;5072380;28;20562;-75
2022/10/02 05:54:33;;;;;;;0.10;0.10;;;;;;;;;;5072876;28;20032;-75
2022/10/02 05:57:11;;;;;;;0.10;0.10;;;;;;;;;;5041572;28;20059;-75
2022/10/02 05:59:36;;;;;;;0.10;0.10;;;;;;;;;;5072862;28;20047;-74
2022/10/02 06:02:08;;;;;;;0.10;0.10;;;;;;;;;;5072718;28;20025;-74
2022/10/02 06:04:38;;;;;;;0.65;0.65;;;;;;;;;;5072012;28;20024;-74
2022/10/02 06:07:08;;;;;;;0.10;0.10;;;;;;;;;;5072202;28;20048;-74
2022/10/02 06:09:55;;;;;;;0.10;0.10;;;;;;;;;;5072543;28;20103;-75
2022/10/02 06:12:27;;;;;;;0.10;0.10;;;;;;;;;;5072567;28;20498;-74
2022/10/02 06:14:59;;;;;;;0.10;0.10;;;;;;;;;;5071795;28;20496;-74
2022/10/02 06:17:26;;;;;;;0.10;0.10;;;;;;;;;;5072284;28;20024;-73
2022/10/02 06:19:59;;;;;;;2.65;2.50;;;;;;;;;;5072458;28;20054;-74
2022/10/02 06:22:29;;;;;;;0.10;0.10;;;;;;;;;;5073746;28;20082;-74
2022/10/02 06:25:07;;;;;;;0.20;0.20;;;;;;;;;;5054288;28;20064;-74
2022/10/02 06:27:51;;;;;;;0.20;0.20;;;;;;;;;;5054247;28;20086;-74
2022/10/02 06:30:18;;;;;;;0.10;0.10;;;;;;;;;;5053957;28;20036;-74
2022/10/02 06:32:43;;;;;;;0.10;0.10;;;;;;;;;;5071998;28;20032;-76
2022/10/02 06:35:14;;;;;;;0.20;0.20;;;;;;;;;;5072092;28;20033;-73
2022/10/02 06:37:43;;;;;;;0.10;0.10;;;;;;;;;;5071686;28;20083;-73
2022/10/02 06:40:29;;;;;;;0.20;0.20;;;;;;;;;;5072070;28;20033;-74
2022/10/02 06:43:02;;;;;;;0.20;0.20;;;;;;;;;;5071674;28;20033;-75
2022/10/02 06:45:34;;;;;;;0.20;0.20;;;;;;;;;;5071960;28;20036;-73
2022/10/02 06:48:02;;;;;;;1.10;1.00;;;;;;;;;;5072202;28;20108;-75
2022/10/02 06:50:37;;;;;;;0.10;0.10;;;;;;;;;;5072053;28;20042;-73
2022/10/02 06:53:11;;;;;;;0.20;0.20;;;;;;;;;;5053685;28;20416;-73
2022/10/02 06:55:43;;;;;;;0.20;0.20;;;;;;;;;;5071688;28;20476;-75
2022/10/02 06:58:14;;;;;;;0.10;0.10;;;;;;;;;;5071741;28;20495;-74
2022/10/02 07:00:46;;;;;;;0.20;0.20;;;;;;;;;;5071527;28;20423;-74
2022/10/02 07:03:21;;;;;;;0.20;0.20;;;;;;;;;;5070799;28;20048;-76
2022/10/02 07:06:05;;;;;;;0.10;0.10;;;;;;;;;;5053530;28;20491;-72
2022/10/02 07:08:47;;;;;;;0.22;0.22;;;;;;;;;;5071444;28;20032;-75
2022/10/02 07:11:27;;;;;;;0.20;0.20;;;;;;;;;;5071408;28;20024;-74
2022/10/02 07:13:52;;;;;;;;;;;;;;;;;;5036881;28;20086;-74
2022/10/02 07:16:17;;;;;;;0.20;0.20;;;;;;;;;;5071640;28;20330;-75
2022/10/02 07:19:15;;;;;;;0.20;0.20;;;;;;;;;;5036779;28;20337;-74
2022/10/02 07:21:53;;;;;;;0.20;0.20;;;;;;;;;;5009885;28;20463;-76
2022/10/02 07:24:19;;;;;;;0.17;0.17;;;;;;;;;;5053166;28;20032;-73
2022/10/02 07:27:14;;;;;;;0.20;0.20;;;;;;;;;;5070947;28;20028;-74
2022/10/02 07:29:58;;;;;;;0.10;0.10;;;;;;;;;;5053442;28;20056;-73
2022/10/02 07:32:34;;;;;;;0.20;0.20;;;;;;;;;;5071019;28;20028;-74
2022/10/02 07:35:18;;;;;;;0.20;0.20;;;;;;;;;;5070978;28;20024;-73
2022/10/02 07:37:57;;;;;;;0.28;0.28;;;;;;;;;;5070869;28;20369;-73
2022/10/02 07:40:25;;;;;;;0.20;0.20;;;;;;;;;;5071065;28;20036;-75
2022/10/02 07:43:05;;;;;;;0.20;0.20;;;;;;;;;;5052428;28;20430;-74
2022/10/02 07:45:31;;;;;;;0.20;0.20;;;;;;;;;;5070725;28;20184;-73
2022/10/02 07:47:57;;;;;;;0.20;0.20;;;;;;;;;;5051818;28;20033;-74
2022/10/02 07:50:28;;;;;;;0.20;0.20;;;;;;;;;;5070944;28;20063;-75
2022/10/02 07:52:58;;;;;;;0.20;0.20;;;;;;;;;;5070648;28;20365;-75
2022/10/02 07:55:24;;;;;;;0.20;0.20;;;;;;;;;;5070571;28;20440;-74
2022/10/02 07:58:02;;;;;;;0.20;0.20;;;;;;;;;;5070814;28;20031;-74
2022/10/02 08:00:30;;;;;;;0.20;0.20;;;;;;;;;;5070267;28;20029;-73
2022/10/02 08:03:00;;;;;;;0.20;0.20;;;;;;;;;;5052428;28;20037;-73
2022/10/02 08:05:28;;;;;;;0.20;0.20;;;;;;;;;;5070596;28;20032;-72
2022/10/02 08:07:59;;;;;;;0.20;0.20;;;;;;;;;;5051998;28;20020;-73
2022/10/02 08:10:28;;;;;;;0.20;0.20;;;;;;;;;;5070410;28;20112;-73
2022/10/02 08:12:53;;;;;;;;;;;;;;;;;;5052690;28;20484;-72
2022/10/02 08:15:19;;;;;;;0.20;0.20;;;;;;;;;;5051743;28;19920;-73
2022/10/02 08:17:49;;;;;;;0.30;0.30;;;;;;;;;;5052190;28;20036;-72
2022/10/02 08:20:18;;;;;;;0.20;0.20;;;;;;;;;;5070150;28;20499;-73
2022/10/02 08:22:56;;;;;;;0.20;0.20;;;;;;;;;;5069851;28;20021;-73
2022/10/02 08:25:27;;;;;;;0.20;0.20;;;;;;;;;;5035482;28;20487;-72
2022/10/02 08:28:00;;;;;;;0.22;0.22;;;;;;;;;;5069877;28;20028;-72
2022/10/02 08:30:26;;;;;;;0.22;0.22;;;;;;;;;;5070412;28;20024;-73
2022/10/02 08:32:52;;;;;;;0.20;0.20;;;;;;;;;;5069743;28;20055;-74
2022/10/02 08:35:18;;;;;;;0.20;0.20;;;;;;;;;;5051840;28;20032;-72
2022/10/02 08:37:44;;;;;;;0.10;0.10;;;;;;;;;;5051970;28;20041;-72
2022/10/02 08:40:21;;;;;;;0.20;0.20;;;;;;;;;;5069114;28;20025;-72
2022/10/02 08:42:47;;;;;;;0.20;0.20;;;;;;;;;;5069698;28;20247;-73
2022/10/02 08:45:18;;;;;;;0.20;0.20;;;;;;;;;;5069636;28;20104;-72
2022/10/02 08:48:04;;;;;;;0.10;0.10;;;;;;;;;;5069573;28;20032;-70
2022/10/02 08:50:35;;;;;;;0.20;0.20;;;;;;;;;;5069196;28;20047;-69
2022/10/02 08:53:21;;;;;;;0.20;0.20;;;;;;;;;;5051350;28;20037;-71
2022/10/02 08:55:54;;;;;;;0.30;0.30;;;;;;;;;;5069564;28;20029;-71
2022/10/02 08:58:46;;;;;;;0.20;0.20;;;;;;;;;;5051364;28;20029;-71
2022/10/02 09:01:14;;;;;;;0.30;0.30;;;;;;;;;;5065397;28;20044;-71
2022/10/02 09:03:59;;;;;;;0.30;0.30;;;;;;;;;;5069426;28;20460;-71
2022/10/02 09:06:43;;;;;;;0.20;0.20;;;;;;;;;;5070268;28;20476;-69
2022/10/02 09:09:12;;;;;;;0.20;0.20;;;;;;;;;;5051427;28;20070;-70
2022/10/02 09:11:43;;;;;;;1.90;0.40;;;;;;;;;;5068536;28;20055;-70
2022/10/02 09:14:27;;;;;;;0.20;0.20;;;;;;;;;;5068077;28;20622;-70
2022/10/02 09:17:12;;;;;;;0.38;0.38;;;;;;;;;;5069321;28;20075;-70
2022/10/02 09:19:37;;;;;;;0.20;0.20;;;;;;;;;;5069434;28;20095;-70
2022/10/02 09:22:09;;;;;;;0.20;0.20;;;;;;;;;;5050930;28;20480;-70
2022/10/02 09:24:45;;;;;;;0.20;0.20;;;;;;;;;;5068692;28;20463;-70
2022/10/02 09:27:29;;;;;;;1.65;1.55;;;;;;;;;;5067515;28;20021;-70
2022/10/02 09:30:13;;;;;;;0.20;0.20;;;;;;;;;;5067785;28;20029;-70
2022/10/02 09:32:57;;;;;;;0.20;0.20;;;;;;;;;;5049348;28;20045;-70
2022/10/02 09:35:23;;;;;;;0.20;0.20;;;;;;;;;;5067008;28;20031;-70
2022/10/02 09:37:49;;;;;;;0.20;0.20;;;;;;;;;;5065879;28;20033;-70
2022/10/02 09:40:33;;;;;;;0.20;0.20;;;;;;;;;;5066611;28;20109;-69
2022/10/02 09:43:17;;;;;;;0.28;0.28;;;;;;;;;;5048447;28;20649;-70
2022/10/02 09:46:02;;;;;;;3.70;0.68;;;;;;;;;;5067399;28;20140;-69
2022/10/02 09:48:48;;;;;;;0.20;0.20;;;;;;;;;;5067841;28;20112;-69
2022/10/02 09:51:29;;;;;;;0.25;0.25;;;;;;;;;;5067766;28;20043;-70
2022/10/02 09:54:14;;;;;;;0.20;0.20;;;;;;;;;;5050413;28;20165;-69
2022/10/02 09:56:45;;;;;;;0.20;0.20;;;;;;;;;;5069010;28;20064;-70
2022/10/02 09:59:30;;;;;;;0.20;0.20;;;;;;;;;;5051392;28;20048;-70
2022/10/02 10:02:04;;;;;;;0.20;0.20;;;;;;;;;;5068828;28;20028;-70
2022/10/02 10:04:48;;;;;;;0.52;0.30;;;;;;;;;;5068866;28;20028;-71
2022/10/02 10:07:13;;;;;;;0.20;0.20;;;;;;;;;;5069105;28;20042;-70
2022/10/02 10:10:02;;;;;;;0.20;0.20;;;;;;;;;;5068593;28;20025;-69
2022/10/02 10:12:33;;;;;;;0.20;0.20;;;;;;;;;;5052264;28;20463;-70
2022/10/02 10:15:18;;;;;;;0.20;0.20;;;;;;;;;;5071809;28;20048;-70
2022/10/02 10:17:44;;;;;;;0.20;0.20;;;;;;;;;;5072348;28;20396;-70
2022/10/02 10:20:22;;;;;;;0.20;0.20;;;;;;;;;;5054328;28;20025;-70
2022/10/02 10:22:56;;;;;;;0.20;0.20;;;;;;;;;;5071751;28;20017;-70
2022/10/02 10:25:31;;;;;;;0.20;0.20;;;;;;;;;;5072009;28;20025;-70
2022/10/02 10:27:59;;;;;;;0.20;0.20;;;;;;;;;;5072242;28;20035;-71
2022/10/02 10:30:43;;;;;;;0.65;0.57;;;;;;;;;;5053908;28;20033;-70
2022/10/02 10:33:24;;;;;;;0.70;0.50;;;;;;;;;;5072157;28;20142;-71
2022/10/02 10:35:59;;;;;;;0.30;0.30;;;;;;;;;;5037701;28;20412;-71
2022/10/02 10:38:31;;;;;;;0.20;0.20;;;;;;;;;;5071678;28;20084;-71
2022/10/02 10:41:00;;;;;;;0.28;0.28;;;;;;;;;;5071749;28;20383;-72
2022/10/02 10:43:40;;;;;;;0.60;0.50;;;;;;;;;;5054145;28;20031;-72
2022/10/02 10:46:24;;;;;;;0.80;0.50;;;;;;;;;;5071968;28;20032;-72
2022/10/02 10:49:14;;;;;;;0.20;0.20;;;;;;;;;;5071832;28;20052;-71
2022/10/02 10:51:40;;;;;;;8.48;1.15;;;;;;;;;;5072062;28;20501;-73
2022/10/02 10:54:20;;;;;;;0.50;0.50;;;;;;;;;;5071401;28;20037;-72
2022/10/02 10:57:03;;;;;;;0.20;0.20;;;;;;;;;;5067757;28;20055;-73
2022/10/02 10:59:31;;;;;;;3.20;0.40;;;;;;;;;;5069323;28;20037;-71
2022/10/02 11:02:15;;;;;;;0.30;0.30;;;;;;;;;;5052727;28;20028;-72
2022/10/02 11:04:46;;;;;;;0.25;0.25;;;;;;;;;;5071341;28;20116;-71
2022/10/02 11:07:40;;;;;;;0.30;0.30;;;;;;;;;;5053717;28;20387;-71
2022/10/02 11:10:18;;;;;;;0.30;0.30;;;;;;;;;;5071255;28;20025;-72
2022/10/02 11:13:02;;;;;;;0.20;0.20;;;;;;;;;;5071294;28;20115;-71
2022/10/02 11:15:43;;;;;;;0.55;0.55;;;;;;;;;;5052924;28;20480;-73
2022/10/02 11:18:15;;;;;;;0.43;0.43;;;;;;;;;;5071354;28;20344;-72
2022/10/02 11:21:14;;;;;;;0.20;0.20;;;;;;;;;;5071698;28;20158;-71
2022/10/02 11:23:56;;;;;;;0.20;0.20;;;;;;;;;;5009507;28;20174;-70
2022/10/02 11:26:49;;;;;;;0.20;0.20;;;;;;;;;;5071682;28;20111;-71
2022/10/02 11:29:24;;;;;;;0.30;0.30;;;;;;;;;;5070975;28;20032;-70
2022/10/02 11:32:13;;;;;;;0.20;0.20;;;;;;;;;;5052877;28;20029;-71
2022/10/02 11:34:57;;;;;;;2.40;1.27;;;;;;;;;;5068923;28;20031;-70
2022/10/02 11:37:33;;;;;;;0.20;0.20;;;;;;;;;;5051316;28;20492;-69
2022/10/02 11:40:13;;;;;;;0.20;0.20;;;;;;;;;;5070525;28;20506;-72
2022/10/02 11:42:47;;;;;;;0.20;0.20;;;;;;;;;;5052781;28;20047;-71
2022/10/02 11:45:31;;;;;;;3.63;0.32;;;;;;;;;;5070651;28;20036;-71
2022/10/02 11:48:15;;;;;;;0.20;0.20;;;;;;;;;;5052215;28;20036;-72
2022/10/02 11:50:41;;;;;;;0.20;0.20;;;;;;;;;;5066903;28;20112;-70
2022/10/02 11:53:33;;;;;;;0.82;0.35;;;;;;;;;;5032130;28;20167;-69
2022/10/02 11:56:10;;;;;;;0.25;0.25;;;;;;;;;;5050196;28;20032;-70
2022/10/02 11:58:45;;;;;;;0.20;0.20;;;;;;;;;;5032005;28;20064;-71
2022/10/02 12:01:28;;;;;;;0.20;0.20;;;;;;;;;;5050761;28;20033;-72
2022/10/02 12:04:11;;;;;;;0.20;0.20;;;;;;;;;;5050499;28;20082;-72
2022/10/02 12:06:47;;;;;;;0.28;0.28;;;;;;;;;;5050628;28;20433;-71
2022/10/02 12:09:23;;;;;;;0.30;0.30;;;;;;;;;;5032684;28;20069;-71
2022/10/02 12:11:59;;;;;;;0.20;0.20;;;;;;;;;;5050025;28;20553;-71
2022/10/02 12:14:38;;;;;;;0.30;0.30;;;;;;;;;;5058640;28;20029;-71
2022/10/02 12:17:09;;;;;;;2.00;0.63;;;;;;;;;;5041459;28;20025;-72
2022/10/02 12:26:57;;;;;;;0.20;0.20;;;;;;;;;;5057797;28;20041;-71
2022/10/02 12:28:30;;;;;;;0.28;0.28;;;;;;;;;;5056128;28;20035;-72
2022/10/02 12:31:09;;;;;;;0.30;0.30;;;;;;;;;;5057377;28;20032;-72
2022/10/02 12:33:53;;;;;;;0.20;0.20;;;;;;;;;;5041202;28;20466;-72
2022/10/02 12:36:32;;;;;;;0.40;0.40;;;;;;;;;;5037003;28;20029;-70
2022/10/02 12:39:01;;;;;;;0.20;0.20;;;;;;;;;;5047660;28;20028;-70
2022/10/02 12:41:31;;;;;;;0.20;0.20;;;;;;;;;;5035222;28;20061;-71
2022/10/02 12:44:05;;;;;;;0.20;0.20;;;;;;;;;;5068821;28;20025;-70
2022/10/02 12:46:34;;;;;;;0.20;0.20;;;;;;;;;;5051698;28;20490;-70
2022/10/02 12:49:02;;;;;;;0.20;0.20;;;;;;;;;;5068973;28;20116;-70
2022/10/02 12:51:37;;;;;;;0.30;0.30;;;;;;;;;;5050997;28;20654;-70
2022/10/02 12:54:03;;;;;;;2.38;2.17;;;;;;;;;;5069456;28;20055;-70
2022/10/02 12:56:35;;;;;;;0.20;0.20;;;;;;;;;;5069599;28;20036;-69
2022/10/02 12:59:03;;;;;;;0.45;0.45;;;;;;;;;;5069078;28;20097;-71
2022/10/02 13:01:48;;;;;;;0.22;0.22;;;;;;;;;;5050791;28;20039;-70
2022/10/02 13:04:22;;;;;;;0.30;0.30;;;;;;;;;;5051384;28;20021;-71
2022/10/02 13:06:48;;;;;;;0.15;0.15;;;;;;;;;;5069457;28;20036;-71
2022/10/02 13:09:19;;;;;;;1.10;0.50;;;;;;;;;;5069199;28;20082;-70
2022/10/02 13:11:52;;;;;;;0.20;0.20;;;;;;;;;;5069019;28;20058;-71
2022/10/02 13:14:21;;;;;;;0.47;0.30;;;;;;;;;;5049984;28;20020;-72
2022/10/02 13:17:04;;;;;;;2.72;0.52;;;;;;;;;;5042400;28;20049;-71
2022/10/02 13:20:01;;;;;;;0.20;0.20;;;;;;;;;;5048751;28;20107;-71
2022/10/02 13:22:45;;;;;;;0.30;0.30;;;;;;;;;;5009053;28;20037;-73
2022/10/02 13:25:23;;;;;;;0.30;0.30;;;;;;;;;;5039696;28;20025;-71
2022/10/02 13:27:49;;;;;;;0.22;0.22;;;;;;;;;;5041580;28;20032;-70
2022/10/02 13:30:21;;;;;;;0.20;0.20;;;;;;;;;;5058159;28;20453;-72
2022/10/02 13:32:53;;;;;;;0.20;0.20;;;;;;;;;;5058357;28;20039;-71
2022/10/02 13:35:27;;;;;;;0.20;0.20;;;;;;;;;;5039728;28;20040;-72
2022/10/02 13:37:54;;;;;;;0.35;0.35;;;;;;;;;;5025476;28;20033;-71
2022/10/02 13:40:19;;;;;;;0.20;0.20;;;;;;;;;;5049031;28;20106;-70
2022/10/02 13:43:04;;;;;;;0.22;0.22;;;;;;;;;;5030769;28;20468;-71
2022/10/02 13:45:30;;;;;;;0.20;0.20;;;;;;;;;;5048287;28;20035;-74
2022/10/02 13:48:02;;;;;;;0.30;0.30;;;;;;;;;;5061015;28;20016;-72
2022/10/02 13:50:30;;;;;;;0.30;0.30;;;;;;;;;;5062905;28;20028;-71
2022/10/02 13:52:55;;;;;;;2.63;0.30;;;;;;;;;;5060551;28;20028;-71
2022/10/02 13:55:26;;;;;;;0.88;0.68;;;;;;;;;;5043247;28;20372;-71
2022/10/02 13:57:57;;;;;;;0.30;0.30;;;;;;;;;;5062037;28;20029;-70
2022/10/02 14:00:35;;;;;;;0.30;0.30;;;;;;;;;;5061183;28;20111;-70
2022/10/02 14:03:06;;;;;;;0.20;0.20;;;;;;;;;;5042762;28;20391;-70
2022/10/02 14:05:31;;;;;;;0.82;0.63;;;;;;;;;;5044567;28;20024;-69
2022/10/02 14:07:56;;;;;;;0.30;0.30;;;;;;;;;;5061260;28;20032;-70
2022/10/02 14:10:41;;;;;;;0.32;0.32;;;;;;;;;;5061223;28;20441;-69
2022/10/02 14:13:25;;;;;;;0.20;0.20;;;;;;;;;;5060654;28;20039;-71
2022/10/02 14:16:02;;;;;;;0.20;0.20;;;;;;;;;;5065452;28;20045;-74
2022/10/02 14:18:40;;;;;;;0.20;0.20;;;;;;;;;;5036067;28;20036;-71
2022/10/02 14:21:12;;;;;;;0.25;0.25;;;;;;;;;;5047606;28;20025;-71
2022/10/02 14:24:00;;;;;;;0.20;0.20;;;;;;;;;;5064099;28;20081;-69
2022/10/02 14:26:26;;;;;;;0.30;0.30;;;;;;;;;;5044202;28;20036;-70
2022/10/02 14:29:00;;;;;;;0.20;0.20;;;;;;;;;;5037123;28;20040;-71
2022/10/02 14:31:32;;;;;;;0.40;0.40;;;;;;;;;;5028824;28;20021;-71
2022/10/02 14:34:08;;;;;;;0.30;0.30;;;;;;;;;;5051049;28;20583;-71
2022/10/02 14:36:39;;;;;;;0.30;0.30;;;;;;;;;;5064239;28;20069;-71
2022/10/02 14:39:08;;;;;;;0.30;0.30;;;;;;;;;;5053270;28;20046;-71
2022/10/02 14:41:55;;;;;;;0.30;0.30;;;;;;;;;;5072247;28;20494;-70
2022/10/02 14:44:33;;;;;;;0.28;0.28;;;;;;;;;;5070430;28;20346;-70
2022/10/02 14:47:09;;;;;;;0.30;0.30;;;;;;;;;;5072059;28;20029;-70
2022/10/02 14:49:43;;;;;;;0.73;0.73;;;;;;;;;;5072006;28;20020;-68
2022/10/02 14:52:08;;;;;;;0.20;0.20;;;;;;;;;;5071099;28;20384;-70
2022/10/02 14:54:42;;;;;;;0.20;0.20;;;;;;;;;;5036949;28;20033;-71
2022/10/02 14:57:14;;;;;;;0.20;0.20;;;;;;;;;;5049013;28;20107;-71
2022/10/02 14:59:46;;;;;;;0.20;0.20;;;;;;;;;;5049436;28;20029;-72
2022/10/02 15:02:32;;;;;;;0.20;0.20;;;;;;;;;;5015294;28;20419;-72
2022/10/02 15:05:16;;;;;;;0.20;0.20;;;;;;;;;;5048546;28;20115;-72
2022/10/02 15:07:42;;;;;;;0.20;0.20;;;;;;;;;;5031459;28;20040;-71
2022/10/02 15:10:20;;;;;;;0.20;0.20;;;;;;;;;;5049649;28;20029;-71
2022/10/02 15:13:02;;;;;;;0.95;0.68;;;;;;;;;;5031273;28;20037;-70
2022/10/02 15:15:30;;;;;;;0.20;0.20;;;;;;;;;;5030987;28;20053;-72
2022/10/02 15:18:31;;;;;;;0.20;0.20;;;;;;;;;;5048974;28;20072;-70
2022/10/02 15:21:04;;;;;;;0.20;0.20;;;;;;;;;;4947947;29;20047;-71
2022/10/02 15:23:33;;;;;;;5.60;0.63;;;;;;;;;;5015392;28;20098;-71
2022/10/02 15:26:18;;;;;;;10.60;0.73;;;;;;;;;;5048916;28;20028;-71
2022/10/02 15:28:59;;;;;;;0.47;0.30;;;;;;;;;;5048403;28;20396;-72
2022/10/02 15:31:34;;;;;;;0.20;0.20;;;;;;;;;;5048882;28;20394;-71